sensor_id;sensor_type;location;lat;lon;timestamp;P1;durP1;ratioP1;P2;durP2;ratioP2
4646;SDS011;2336;47.822;7.564;2023-04-30T00:00:53;7.47;;;6.83;;
4646;SDS011;2336;47.822;7.564;2023-04-30T00:03:19;6.83;;;6.30;;
4646;SDS011;2336;47.822;7.564;2023-04-30T00:05:49;7.20;;;6.60;;
4646;SDS011;2336;47.822;7.564;2023-04-30T00:08:17;7.27;;;6.67;;
4646;SDS011;2336;47.822;7.564;2023-04-30T00:10:44;8.27;;;7.53;;
4646;SDS011;2336;47.822;7.564;2023-04-30T00:13:10;8.07;;;7.37;;
4646;SDS011;2336;47.822;7.564;2023-04-30T00:15:38;7.97;;;7.33;;
4646;SDS011;2336;47.822;7.564;2023-04-30T00:18:05;7.97;;;7.27;;
4646;SDS011;2336;47.822;7.564;2023-04-30T00:20:32;8.57;;;7.83;;
4646;SDS011;2336;47.822;7.564;2023-04-30T00:22:59;7.97;;;7.30;;
4646;SDS011;2336;47.822;7.564;2023-04-30T00:25:27;7.90;;;7.30;;
4646;SDS011;2336;47.822;7.564;2023-04-30T00:27:54;7.80;;;7.10;;
4646;SDS011;2336;47.822;7.564;2023-04-30T00:30:21;7.10;;;6.60;;
4646;SDS011;2336;47.822;7.564;2023-04-30T00:32:48;6.20;;;5.80;;
4646;SDS011;2336;47.822;7.564;2023-04-30T00:35:14;6.97;;;6.47;;
4646;SDS011;2336;47.822;7.564;2023-04-30T00:37:41;8.40;;;7.70;;
4646;SDS011;2336;47.822;7.564;2023-04-30T00:40:08;8.73;;;7.77;;
4646;SDS011;2336;47.822;7.564;2023-04-30T00:42:37;8.90;;;8.20;;
4646;SDS011;2336;47.822;7.564;2023-04-30T00:45:04;8.27;;;7.57;;
4646;SDS011;2336;47.822;7.564;2023-04-30T00:47:32;7.53;;;7.03;;
4646;SDS011;2336;47.822;7.564;2023-04-30T00:49:59;7.13;;;6.63;;
4646;SDS011;2336;47.822;7.564;2023-04-30T00:52:25;6.50;;;6.03;;
4646;SDS011;2336;47.822;7.564;2023-04-30T00:54:52;6.73;;;6.33;;
4646;SDS011;2336;47.822;7.564;2023-04-30T00:57:19;7.17;;;6.47;;
4646;SDS011;2336;47.822;7.564;2023-04-30T00:59:48;7.47;;;6.90;;
4646;SDS011;2336;47.822;7.564;2023-04-30T01:02:16;7.23;;;6.70;;
4646;SDS011;2336;47.822;7.564;2023-04-30T01:04:42;8.33;;;7.63;;
4646;SDS011;2336;47.822;7.564;2023-04-30T01:07:09;8.93;;;8.23;;
4646;SDS011;2336;47.822;7.564;2023-04-30T01:09:36;7.63;;;7.03;;
4646;SDS011;2336;47.822;7.564;2023-04-30T01:12:07;7.30;;;6.80;;
4646;SDS011;2336;47.822;7.564;2023-04-30T01:14:40;8.00;;;7.40;;
4646;SDS011;2336;47.822;7.564;2023-04-30T01:17:20;8.03;;;7.43;;
4646;SDS011;2336;47.822;7.564;2023-04-30T01:19:51;7.30;;;6.70;;
4646;SDS011;2336;47.822;7.564;2023-04-30T01:22:23;8.53;;;6.40;;
4646;SDS011;2336;47.822;7.564;2023-04-30T01:25:05;7.83;;;7.30;;
4646;SDS011;2336;47.822;7.564;2023-04-30T01:30:30;6.53;;;6.13;;
4646;SDS011;2336;47.822;7.564;2023-04-30T01:32:57;8.93;;;8.10;;
4646;SDS011;2336;47.822;7.564;2023-04-30T01:38:52;8.40;;;7.43;;
4646;SDS011;2336;47.822;7.564;2023-04-30T01:41:28;7.50;;;6.90;;
4646;SDS011;2336;47.822;7.564;2023-04-30T01:44:05;8.03;;;7.33;;
4646;SDS011;2336;47.822;7.564;2023-04-30T01:46:45;8.20;;;7.40;;
4646;SDS011;2336;47.822;7.564;2023-04-30T01:49:23;7.73;;;7.23;;
4646;SDS011;2336;47.822;7.564;2023-04-30T01:52:05;9.30;;;8.43;;
4646;SDS011;2336;47.822;7.564;2023-04-30T01:54:42;7.27;;;6.77;;
4646;SDS011;2336;47.822;7.564;2023-04-30T01:57:15;7.53;;;7.03;;
4646;SDS011;2336;47.822;7.564;2023-04-30T01:59:53;8.50;;;7.80;;
4646;SDS011;2336;47.822;7.564;2023-04-30T02:02:20;8.30;;;7.43;;
4646;SDS011;2336;47.822;7.564;2023-04-30T02:04:47;9.10;;;8.30;;
4646;SDS011;2336;47.822;7.564;2023-04-30T02:07:16;9.00;;;8.30;;
4646;SDS011;2336;47.822;7.564;2023-04-30T02:10:03;9.53;;;8.47;;
4646;SDS011;2336;47.822;7.564;2023-04-30T02:12:30;8.93;;;8.20;;
4646;SDS011;2336;47.822;7.564;2023-04-30T02:14:58;8.53;;;7.83;;
4646;SDS011;2336;47.822;7.564;2023-04-30T02:17:25;8.57;;;7.87;;
4646;SDS011;2336;47.822;7.564;2023-04-30T02:19:51;8.80;;;7.90;;
4646;SDS011;2336;47.822;7.564;2023-04-30T02:22:18;8.23;;;7.63;;
4646;SDS011;2336;47.822;7.564;2023-04-30T02:24:45;9.77;;;8.83;;
4646;SDS011;2336;47.822;7.564;2023-04-30T02:27:11;10.10;;;9.13;;
4646;SDS011;2336;47.822;7.564;2023-04-30T02:29:38;11.57;;;10.47;;
4646;SDS011;2336;47.822;7.564;2023-04-30T02:32:06;11.43;;;10.47;;
4646;SDS011;2336;47.822;7.564;2023-04-30T02:34:33;11.73;;;10.50;;
4646;SDS011;2336;47.822;7.564;2023-04-30T02:36:59;12.23;;;11.03;;
4646;SDS011;2336;47.822;7.564;2023-04-30T02:39:26;13.60;;;12.20;;
4646;SDS011;2336;47.822;7.564;2023-04-30T02:41:53;13.20;;;11.90;;
4646;SDS011;2336;47.822;7.564;2023-04-30T02:44:20;14.00;;;12.63;;
4646;SDS011;2336;47.822;7.564;2023-04-30T02:46:46;13.20;;;11.93;;
4646;SDS011;2336;47.822;7.564;2023-04-30T02:49:14;16.77;;;14.40;;
4646;SDS011;2336;47.822;7.564;2023-04-30T02:51:41;13.83;;;12.53;;
4646;SDS011;2336;47.822;7.564;2023-04-30T02:54:08;15.57;;;13.97;;
4646;SDS011;2336;47.822;7.564;2023-04-30T02:56:35;14.00;;;12.63;;
4646;SDS011;2336;47.822;7.564;2023-04-30T02:59:02;16.10;;;14.40;;
4646;SDS011;2336;47.822;7.564;2023-04-30T03:01:29;16.40;;;14.70;;
4646;SDS011;2336;47.822;7.564;2023-04-30T03:03:56;15.97;;;13.40;;
4646;SDS011;2336;47.822;7.564;2023-04-30T03:06:24;17.60;;;15.60;;
4646;SDS011;2336;47.822;7.564;2023-04-30T03:08:51;16.90;;;15.20;;
4646;SDS011;2336;47.822;7.564;2023-04-30T03:11:18;21.47;;;15.23;;
4646;SDS011;2336;47.822;7.564;2023-04-30T03:13:45;16.63;;;14.70;;
4646;SDS011;2336;47.822;7.564;2023-04-30T03:16:15;17.33;;;15.53;;
4646;SDS011;2336;47.822;7.564;2023-04-30T03:18:42;16.60;;;14.80;;
4646;SDS011;2336;47.822;7.564;2023-04-30T03:21:09;16.43;;;14.73;;
4646;SDS011;2336;47.822;7.564;2023-04-30T03:23:37;18.10;;;14.17;;
4646;SDS011;2336;47.822;7.564;2023-04-30T03:26:04;21.87;;;16.90;;
4646;SDS011;2336;47.822;7.564;2023-04-30T03:28:31;21.00;;;17.10;;
4646;SDS011;2336;47.822;7.564;2023-04-30T03:30:57;20.47;;;18.07;;
4646;SDS011;2336;47.822;7.564;2023-04-30T03:33:24;19.27;;;17.13;;
4646;SDS011;2336;47.822;7.564;2023-04-30T03:35:51;19.80;;;17.37;;
4646;SDS011;2336;47.822;7.564;2023-04-30T03:38:18;18.63;;;16.80;;
4646;SDS011;2336;47.822;7.564;2023-04-30T03:40:46;20.60;;;17.87;;
4646;SDS011;2336;47.822;7.564;2023-04-30T03:43:12;22.50;;;19.40;;
4646;SDS011;2336;47.822;7.564;2023-04-30T03:45:39;21.90;;;18.30;;
4646;SDS011;2336;47.822;7.564;2023-04-30T03:48:06;19.10;;;16.80;;
4646;SDS011;2336;47.822;7.564;2023-04-30T03:50:32;27.03;;;19.40;;
4646;SDS011;2336;47.822;7.564;2023-04-30T03:53:00;28.50;;;19.93;;
4646;SDS011;2336;47.822;7.564;2023-04-30T03:55:26;25.30;;;19.77;;
4646;SDS011;2336;47.822;7.564;2023-04-30T03:57:55;25.67;;;19.30;;
4646;SDS011;2336;47.822;7.564;2023-04-30T04:00:22;23.03;;;18.20;;
4646;SDS011;2336;47.822;7.564;2023-04-30T04:02:49;21.80;;;17.67;;
4646;SDS011;2336;47.822;7.564;2023-04-30T04:05:15;22.73;;;17.23;;
4646;SDS011;2336;47.822;7.564;2023-04-30T04:07:42;21.37;;;17.43;;
4646;SDS011;2336;47.822;7.564;2023-04-30T04:10:09;27.57;;;18.90;;
4646;SDS011;2336;47.822;7.564;2023-04-30T04:12:36;21.03;;;17.83;;
4646;SDS011;2336;47.822;7.564;2023-04-30T04:15:05;25.27;;;19.90;;
4646;SDS011;2336;47.822;7.564;2023-04-30T04:17:32;22.77;;;19.23;;
4646;SDS011;2336;47.822;7.564;2023-04-30T04:19:59;21.40;;;17.60;;
4646;SDS011;2336;47.822;7.564;2023-04-30T04:22:26;25.87;;;20.33;;
4646;SDS011;2336;47.822;7.564;2023-04-30T04:24:52;26.10;;;20.57;;
4646;SDS011;2336;47.822;7.564;2023-04-30T04:27:19;28.00;;;20.27;;
4646;SDS011;2336;47.822;7.564;2023-04-30T04:29:46;23.30;;;19.60;;
4646;SDS011;2336;47.822;7.564;2023-04-30T04:32:14;22.57;;;18.20;;
4646;SDS011;2336;47.822;7.564;2023-04-30T04:34:41;21.73;;;19.30;;
4646;SDS011;2336;47.822;7.564;2023-04-30T04:37:07;25.50;;;18.33;;
4646;SDS011;2336;47.822;7.564;2023-04-30T04:39:35;21.07;;;17.70;;
4646;SDS011;2336;47.822;7.564;2023-04-30T04:42:01;23.43;;;17.60;;
4646;SDS011;2336;47.822;7.564;2023-04-30T04:44:29;19.60;;;16.90;;
4646;SDS011;2336;47.822;7.564;2023-04-30T04:46:56;22.67;;;18.87;;
4646;SDS011;2336;47.822;7.564;2023-04-30T04:49:24;21.87;;;18.37;;
4646;SDS011;2336;47.822;7.564;2023-04-30T04:51:51;21.30;;;17.40;;
4646;SDS011;2336;47.822;7.564;2023-04-30T04:54:17;20.77;;;17.23;;
4646;SDS011;2336;47.822;7.564;2023-04-30T04:56:45;19.87;;;16.73;;
4646;SDS011;2336;47.822;7.564;2023-04-30T04:59:12;17.27;;;15.47;;
4646;SDS011;2336;47.822;7.564;2023-04-30T05:01:39;17.83;;;15.93;;
4646;SDS011;2336;47.822;7.564;2023-04-30T05:04:06;18.43;;;16.43;;
4646;SDS011;2336;47.822;7.564;2023-04-30T05:06:35;19.27;;;17.17;;
4646;SDS011;2336;47.822;7.564;2023-04-30T05:09:02;16.50;;;14.50;;
4646;SDS011;2336;47.822;7.564;2023-04-30T05:11:30;17.53;;;15.63;;
4646;SDS011;2336;47.822;7.564;2023-04-30T05:13:57;18.50;;;15.60;;
4646;SDS011;2336;47.822;7.564;2023-04-30T05:16:24;18.90;;;16.80;;
4646;SDS011;2336;47.822;7.564;2023-04-30T05:18:51;19.80;;;17.70;;
4646;SDS011;2336;47.822;7.564;2023-04-30T05:21:18;17.00;;;15.27;;
4646;SDS011;2336;47.822;7.564;2023-04-30T05:23:46;18.07;;;14.77;;
4646;SDS011;2336;47.822;7.564;2023-04-30T05:26:12;17.53;;;15.83;;
4646;SDS011;2336;47.822;7.564;2023-04-30T05:28:39;15.57;;;14.00;;
4646;SDS011;2336;47.822;7.564;2023-04-30T05:31:06;16.17;;;14.43;;
4646;SDS011;2336;47.822;7.564;2023-04-30T05:33:32;17.60;;;14.47;;
4646;SDS011;2336;47.822;7.564;2023-04-30T05:36:01;18.90;;;15.10;;
4646;SDS011;2336;47.822;7.564;2023-04-30T05:38:27;16.87;;;15.07;;
4646;SDS011;2336;47.822;7.564;2023-04-30T05:40:55;18.90;;;16.33;;
4646;SDS011;2336;47.822;7.564;2023-04-30T05:43:22;16.23;;;14.17;;
4646;SDS011;2336;47.822;7.564;2023-04-30T05:45:49;18.03;;;16.13;;
4646;SDS011;2336;47.822;7.564;2023-04-30T05:48:16;15.27;;;13.77;;
4646;SDS011;2336;47.822;7.564;2023-04-30T05:50:42;16.37;;;14.67;;
4646;SDS011;2336;47.822;7.564;2023-04-30T05:53:09;15.90;;;14.33;;
4646;SDS011;2336;47.822;7.564;2023-04-30T05:55:36;17.67;;;14.63;;
4646;SDS011;2336;47.822;7.564;2023-04-30T05:58:04;16.90;;;15.10;;
4646;SDS011;2336;47.822;7.564;2023-04-30T06:00:31;16.20;;;14.60;;
4646;SDS011;2336;47.822;7.564;2023-04-30T06:02:57;14.60;;;13.20;;
4646;SDS011;2336;47.822;7.564;2023-04-30T06:05:24;15.20;;;13.60;;
4646;SDS011;2336;47.822;7.564;2023-04-30T06:11:13;15.30;;;13.80;;
4646;SDS011;2336;47.822;7.564;2023-04-30T06:13:41;13.73;;;12.50;;
4646;SDS011;2336;47.822;7.564;2023-04-30T06:16:08;15.33;;;12.80;;
4646;SDS011;2336;47.822;7.564;2023-04-30T06:18:35;13.53;;;12.20;;
4646;SDS011;2336;47.822;7.564;2023-04-30T06:21:01;13.33;;;11.93;;
4646;SDS011;2336;47.822;7.564;2023-04-30T06:23:28;13.30;;;12.00;;
4646;SDS011;2336;47.822;7.564;2023-04-30T06:25:55;12.00;;;11.00;;
4646;SDS011;2336;47.822;7.564;2023-04-30T06:28:22;12.53;;;11.37;;
4646;SDS011;2336;47.822;7.564;2023-04-30T06:30:50;12.47;;;11.40;;
4646;SDS011;2336;47.822;7.564;2023-04-30T06:33:18;13.40;;;12.20;;
4646;SDS011;2336;47.822;7.564;2023-04-30T06:35:45;12.10;;;11.10;;
4646;SDS011;2336;47.822;7.564;2023-04-30T06:38:12;13.83;;;12.40;;
4646;SDS011;2336;47.822;7.564;2023-04-30T06:40:38;12.03;;;10.93;;
4646;SDS011;2336;47.822;7.564;2023-04-30T06:43:05;13.90;;;12.50;;
4646;SDS011;2336;47.822;7.564;2023-04-30T06:45:32;12.17;;;11.03;;
4646;SDS011;2336;47.822;7.564;2023-04-30T06:48:00;12.27;;;11.20;;
4646;SDS011;2336;47.822;7.564;2023-04-30T06:50:27;13.07;;;10.90;;
4646;SDS011;2336;47.822;7.564;2023-04-30T06:52:54;11.90;;;10.80;;
4646;SDS011;2336;47.822;7.564;2023-04-30T06:55:20;11.30;;;10.40;;
4646;SDS011;2336;47.822;7.564;2023-04-30T06:57:47;11.20;;;10.30;;
4646;SDS011;2336;47.822;7.564;2023-04-30T07:00:14;11.93;;;10.90;;
4646;SDS011;2336;47.822;7.564;2023-04-30T07:02:41;10.97;;;10.07;;
4646;SDS011;2336;47.822;7.564;2023-04-30T07:05:09;11.23;;;10.30;;
4646;SDS011;2336;47.822;7.564;2023-04-30T07:07:37;11.33;;;10.33;;
4646;SDS011;2336;47.822;7.564;2023-04-30T07:10:04;10.70;;;9.70;;
4646;SDS011;2336;47.822;7.564;2023-04-30T07:12:31;10.53;;;9.63;;
4646;SDS011;2336;47.822;7.564;2023-04-30T07:14:58;10.63;;;9.63;;
4646;SDS011;2336;47.822;7.564;2023-04-30T07:17:25;11.20;;;10.30;;
4646;SDS011;2336;47.822;7.564;2023-04-30T07:19:51;12.03;;;9.93;;
4646;SDS011;2336;47.822;7.564;2023-04-30T07:22:19;10.30;;;9.40;;
4646;SDS011;2336;47.822;7.564;2023-04-30T07:24:46;10.63;;;9.80;;
4646;SDS011;2336;47.822;7.564;2023-04-30T07:27:13;10.20;;;9.30;;
4646;SDS011;2336;47.822;7.564;2023-04-30T07:29:40;10.53;;;9.60;;
4646;SDS011;2336;47.822;7.564;2023-04-30T07:32:06;10.67;;;9.57;;
4646;SDS011;2336;47.822;7.564;2023-04-30T07:34:33;9.70;;;8.90;;
4646;SDS011;2336;47.822;7.564;2023-04-30T07:37:00;9.30;;;8.60;;
4646;SDS011;2336;47.822;7.564;2023-04-30T07:39:28;9.27;;;8.47;;
4646;SDS011;2336;47.822;7.564;2023-04-30T07:41:55;9.10;;;8.40;;
4646;SDS011;2336;47.822;7.564;2023-04-30T07:44:22;8.20;;;7.50;;
4646;SDS011;2336;47.822;7.564;2023-04-30T07:46:48;8.73;;;7.93;;
4646;SDS011;2336;47.822;7.564;2023-04-30T07:49:15;8.07;;;7.50;;
4646;SDS011;2336;47.822;7.564;2023-04-30T07:51:42;8.80;;;8.00;;
4646;SDS011;2336;47.822;7.564;2023-04-30T07:54:09;8.40;;;7.70;;
4646;SDS011;2336;47.822;7.564;2023-04-30T07:56:37;8.13;;;7.47;;
4646;SDS011;2336;47.822;7.564;2023-04-30T07:59:03;6.87;;;6.47;;
4646;SDS011;2336;47.822;7.564;2023-04-30T08:01:30;7.30;;;6.70;;
4646;SDS011;2336;47.822;7.564;2023-04-30T08:03:57;8.17;;;7.57;;
4646;SDS011;2336;47.822;7.564;2023-04-30T08:06:24;6.87;;;6.47;;
4646;SDS011;2336;47.822;7.564;2023-04-30T08:08:51;8.40;;;7.57;;
4646;SDS011;2336;47.822;7.564;2023-04-30T08:11:18;7.80;;;7.30;;
4646;SDS011;2336;47.822;7.564;2023-04-30T08:13:46;7.80;;;7.30;;
4646;SDS011;2336;47.822;7.564;2023-04-30T08:16:13;7.27;;;6.73;;
4646;SDS011;2336;47.822;7.564;2023-04-30T08:18:41;7.00;;;6.60;;
4646;SDS011;2336;47.822;7.564;2023-04-30T08:21:08;6.53;;;6.10;;
4646;SDS011;2336;47.822;7.564;2023-04-30T08:23:35;6.33;;;5.93;;
4646;SDS011;2336;47.822;7.564;2023-04-30T08:26:02;6.13;;;5.73;;
4646;SDS011;2336;47.822;7.564;2023-04-30T08:28:29;5.83;;;5.53;;
4646;SDS011;2336;47.822;7.564;2023-04-30T08:30:57;7.03;;;6.33;;
4646;SDS011;2336;47.822;7.564;2023-04-30T08:33:23;5.77;;;5.47;;
4646;SDS011;2336;47.822;7.564;2023-04-30T08:35:50;6.00;;;5.70;;
4646;SDS011;2336;47.822;7.564;2023-04-30T08:38:17;5.83;;;5.43;;
4646;SDS011;2336;47.822;7.564;2023-04-30T08:40:45;5.37;;;5.07;;
4646;SDS011;2336;47.822;7.564;2023-04-30T08:43:17;4.90;;;4.60;;
4646;SDS011;2336;47.822;7.564;2023-04-30T08:45:45;4.67;;;4.47;;
4646;SDS011;2336;47.822;7.564;2023-04-30T08:48:13;5.07;;;4.77;;
4646;SDS011;2336;47.822;7.564;2023-04-30T08:50:40;4.97;;;4.67;;
4646;SDS011;2336;47.822;7.564;2023-04-30T08:53:07;4.53;;;4.30;;
4646;SDS011;2336;47.822;7.564;2023-04-30T08:55:36;4.20;;;4.00;;
4646;SDS011;2336;47.822;7.564;2023-04-30T08:58:05;4.50;;;4.30;;
4646;SDS011;2336;47.822;7.564;2023-04-30T09:00:34;3.27;;;3.17;;
4646;SDS011;2336;47.822;7.564;2023-04-30T09:03:03;2.37;;;2.30;;
4646;SDS011;2336;47.822;7.564;2023-04-30T09:05:31;2.40;;;2.20;;
4646;SDS011;2336;47.822;7.564;2023-04-30T09:07:58;2.10;;;2.00;;
4646;SDS011;2336;47.822;7.564;2023-04-30T09:10:25;2.07;;;1.97;;
4646;SDS011;2336;47.822;7.564;2023-04-30T09:12:57;2.03;;;1.93;;
4646;SDS011;2336;47.822;7.564;2023-04-30T09:15:25;2.47;;;2.40;;
4646;SDS011;2336;47.822;7.564;2023-04-30T09:18:04;2.33;;;1.90;;
4646;SDS011;2336;47.822;7.564;2023-04-30T09:20:34;1.80;;;1.80;;
4646;SDS011;2336;47.822;7.564;2023-04-30T09:23:04;2.03;;;2.03;;
4646;SDS011;2336;47.822;7.564;2023-04-30T09:25:39;1.60;;;1.60;;
4646;SDS011;2336;47.822;7.564;2023-04-30T09:28:07;1.90;;;1.80;;
4646;SDS011;2336;47.822;7.564;2023-04-30T09:30:35;1.60;;;1.57;;
4646;SDS011;2336;47.822;7.564;2023-04-30T09:33:02;1.50;;;1.50;;
4646;SDS011;2336;47.822;7.564;2023-04-30T09:35:29;1.90;;;1.90;;
4646;SDS011;2336;47.822;7.564;2023-04-30T09:37:59;1.80;;;1.80;;
4646;SDS011;2336;47.822;7.564;2023-04-30T09:40:36;3.40;;;1.80;;
4646;SDS011;2336;47.822;7.564;2023-04-30T09:43:04;2.03;;;1.93;;
4646;SDS011;2336;47.822;7.564;2023-04-30T09:45:38;2.37;;;2.17;;
4646;SDS011;2336;47.822;7.564;2023-04-30T09:48:07;1.60;;;1.60;;
4646;SDS011;2336;47.822;7.564;2023-04-30T09:50:38;2.50;;;1.70;;
4646;SDS011;2336;47.822;7.564;2023-04-30T09:53:07;1.77;;;1.77;;
4646;SDS011;2336;47.822;7.564;2023-04-30T09:55:35;1.53;;;1.53;;
4646;SDS011;2336;47.822;7.564;2023-04-30T09:58:05;1.53;;;1.53;;
4646;SDS011;2336;47.822;7.564;2023-04-30T10:00:33;1.30;;;1.30;;
4646;SDS011;2336;47.822;7.564;2023-04-30T10:03:00;1.40;;;1.40;;
4646;SDS011;2336;47.822;7.564;2023-04-30T10:05:32;1.60;;;1.50;;
4646;SDS011;2336;47.822;7.564;2023-04-30T10:08:01;1.47;;;1.47;;
4646;SDS011;2336;47.822;7.564;2023-04-30T10:10:30;1.60;;;1.60;;
4646;SDS011;2336;47.822;7.564;2023-04-30T10:12:59;1.80;;;1.80;;
4646;SDS011;2336;47.822;7.564;2023-04-30T10:15:30;2.20;;;1.60;;
4646;SDS011;2336;47.822;7.564;2023-04-30T10:18:01;1.70;;;1.60;;
4646;SDS011;2336;47.822;7.564;2023-04-30T10:20:30;1.63;;;1.53;;
4646;SDS011;2336;47.822;7.564;2023-04-30T10:23:01;1.73;;;1.73;;
4646;SDS011;2336;47.822;7.564;2023-04-30T10:25:28;1.60;;;1.60;;
4646;SDS011;2336;47.822;7.564;2023-04-30T10:27:57;1.50;;;1.50;;
4646;SDS011;2336;47.822;7.564;2023-04-30T10:30:24;1.97;;;1.90;;
4646;SDS011;2336;47.822;7.564;2023-04-30T10:32:54;2.23;;;2.03;;
4646;SDS011;2336;47.822;7.564;2023-04-30T10:35:32;1.60;;;1.60;;
4646;SDS011;2336;47.822;7.564;2023-04-30T10:38:06;1.67;;;1.67;;
4646;SDS011;2336;47.822;7.564;2023-04-30T10:40:44;1.80;;;1.70;;
4646;SDS011;2336;47.822;7.564;2023-04-30T10:43:12;1.80;;;1.80;;
4646;SDS011;2336;47.822;7.564;2023-04-30T10:45:40;2.50;;;2.30;;
4646;SDS011;2336;47.822;7.564;2023-04-30T10:48:08;1.70;;;1.70;;
4646;SDS011;2336;47.822;7.564;2023-04-30T10:50:38;2.13;;;1.90;;
4646;SDS011;2336;47.822;7.564;2023-04-30T10:53:06;1.90;;;1.80;;
4646;SDS011;2336;47.822;7.564;2023-04-30T10:55:43;8.33;;;2.00;;
4646;SDS011;2336;47.822;7.564;2023-04-30T10:58:22;2.10;;;2.00;;
4646;SDS011;2336;47.822;7.564;2023-04-30T11:00:50;2.20;;;2.10;;
4646;SDS011;2336;47.822;7.564;2023-04-30T11:03:26;1.80;;;1.80;;
4646;SDS011;2336;47.822;7.564;2023-04-30T11:05:53;1.80;;;1.80;;
4646;SDS011;2336;47.822;7.564;2023-04-30T11:08:30;1.73;;;1.73;;
4646;SDS011;2336;47.822;7.564;2023-04-30T11:10:59;1.57;;;1.57;;
4646;SDS011;2336;47.822;7.564;2023-04-30T11:13:26;1.80;;;1.80;;
4646;SDS011;2336;47.822;7.564;2023-04-30T11:15:53;1.63;;;1.60;;
4646;SDS011;2336;47.822;7.564;2023-04-30T11:18:27;1.67;;;1.60;;
4646;SDS011;2336;47.822;7.564;2023-04-30T11:20:55;1.77;;;1.67;;
4646;SDS011;2336;47.822;7.564;2023-04-30T11:23:23;2.50;;;2.40;;
4646;SDS011;2336;47.822;7.564;2023-04-30T11:25:53;1.97;;;1.90;;
4646;SDS011;2336;47.822;7.564;2023-04-30T11:28:22;2.13;;;2.07;;
4646;SDS011;2336;47.822;7.564;2023-04-30T11:30:50;2.07;;;1.97;;
4646;SDS011;2336;47.822;7.564;2023-04-30T11:33:18;2.03;;;2.03;;
4646;SDS011;2336;47.822;7.564;2023-04-30T11:35:45;1.80;;;1.70;;
4646;SDS011;2336;47.822;7.564;2023-04-30T11:38:14;1.80;;;1.80;;
4646;SDS011;2336;47.822;7.564;2023-04-30T11:40:42;1.97;;;1.87;;
4646;SDS011;2336;47.822;7.564;2023-04-30T11:43:19;1.90;;;1.80;;
4646;SDS011;2336;47.822;7.564;2023-04-30T11:46:00;2.10;;;1.97;;
4646;SDS011;2336;47.822;7.564;2023-04-30T11:48:30;1.90;;;1.80;;
4646;SDS011;2336;47.822;7.564;2023-04-30T11:50:57;2.03;;;1.93;;
4646;SDS011;2336;47.822;7.564;2023-04-30T11:53:25;2.00;;;1.90;;
4646;SDS011;2336;47.822;7.564;2023-04-30T11:55:53;1.80;;;1.70;;
4646;SDS011;2336;47.822;7.564;2023-04-30T11:58:21;2.87;;;1.97;;
4646;SDS011;2336;47.822;7.564;2023-04-30T12:00:49;1.80;;;1.80;;
4646;SDS011;2336;47.822;7.564;2023-04-30T12:03:17;2.27;;;2.17;;
4646;SDS011;2336;47.822;7.564;2023-04-30T12:05:44;2.10;;;2.00;;
4646;SDS011;2336;47.822;7.564;2023-04-30T12:08:11;3.67;;;2.67;;
4646;SDS011;2336;47.822;7.564;2023-04-30T12:10:38;2.20;;;2.20;;
4646;SDS011;2336;47.822;7.564;2023-04-30T12:13:05;2.37;;;2.27;;
4646;SDS011;2336;47.822;7.564;2023-04-30T12:15:33;2.10;;;2.10;;
4646;SDS011;2336;47.822;7.564;2023-04-30T12:18:09;2.37;;;2.17;;
4646;SDS011;2336;47.822;7.564;2023-04-30T12:20:37;2.23;;;2.17;;
4646;SDS011;2336;47.822;7.564;2023-04-30T12:23:04;2.40;;;2.30;;
4646;SDS011;2336;47.822;7.564;2023-04-30T12:25:38;2.40;;;2.30;;
4646;SDS011;2336;47.822;7.564;2023-04-30T12:28:06;2.30;;;2.30;;
4646;SDS011;2336;47.822;7.564;2023-04-30T12:30:34;2.63;;;2.53;;
4646;SDS011;2336;47.822;7.564;2023-04-30T12:33:01;2.43;;;2.30;;
4646;SDS011;2336;47.822;7.564;2023-04-30T12:35:30;2.57;;;2.13;;
4646;SDS011;2336;47.822;7.564;2023-04-30T12:38:00;2.97;;;2.50;;
4646;SDS011;2336;47.822;7.564;2023-04-30T12:40:28;3.20;;;3.00;;
4646;SDS011;2336;47.822;7.564;2023-04-30T12:42:58;2.60;;;2.50;;
4646;SDS011;2336;47.822;7.564;2023-04-30T12:45:46;2.10;;;2.10;;
4646;SDS011;2336;47.822;7.564;2023-04-30T12:48:16;2.40;;;2.30;;
4646;SDS011;2336;47.822;7.564;2023-04-30T12:50:47;2.20;;;2.20;;
4646;SDS011;2336;47.822;7.564;2023-04-30T12:53:18;2.40;;;2.30;;
4646;SDS011;2336;47.822;7.564;2023-04-30T12:58:33;5.13;;;1.97;;
4646;SDS011;2336;47.822;7.564;2023-04-30T13:01:01;2.33;;;2.20;;
4646;SDS011;2336;47.822;7.564;2023-04-30T13:03:28;2.23;;;2.23;;
4646;SDS011;2336;47.822;7.564;2023-04-30T13:05:54;2.10;;;2.10;;
4646;SDS011;2336;47.822;7.564;2023-04-30T13:08:22;2.37;;;2.23;;
4646;SDS011;2336;47.822;7.564;2023-04-30T13:10:49;2.10;;;2.10;;
4646;SDS011;2336;47.822;7.564;2023-04-30T13:13:16;7.53;;;4.27;;
4646;SDS011;2336;47.822;7.564;2023-04-30T13:15:44;2.00;;;2.00;;
4646;SDS011;2336;47.822;7.564;2023-04-30T13:18:12;2.30;;;2.20;;
4646;SDS011;2336;47.822;7.564;2023-04-30T13:20:39;2.57;;;2.47;;
4646;SDS011;2336;47.822;7.564;2023-04-30T13:23:07;2.23;;;2.13;;
4646;SDS011;2336;47.822;7.564;2023-04-30T13:25:35;2.17;;;2.07;;
4646;SDS011;2336;47.822;7.564;2023-04-30T13:28:03;2.63;;;2.53;;
4646;SDS011;2336;47.822;7.564;2023-04-30T13:30:30;2.90;;;2.80;;
4646;SDS011;2336;47.822;7.564;2023-04-30T13:32:58;3.40;;;2.73;;
4646;SDS011;2336;47.822;7.564;2023-04-30T13:35:26;2.10;;;2.10;;
4646;SDS011;2336;47.822;7.564;2023-04-30T13:37:53;2.60;;;2.40;;
4646;SDS011;2336;47.822;7.564;2023-04-30T13:40:21;2.07;;;2.07;;
4646;SDS011;2336;47.822;7.564;2023-04-30T13:42:48;5.60;;;2.50;;
4646;SDS011;2336;47.822;7.564;2023-04-30T13:45:15;1.77;;;1.77;;
4646;SDS011;2336;47.822;7.564;2023-04-30T13:47:41;2.20;;;2.20;;
4646;SDS011;2336;47.822;7.564;2023-04-30T13:50:08;2.00;;;2.00;;
4646;SDS011;2336;47.822;7.564;2023-04-30T13:52:37;2.03;;;2.03;;
4646;SDS011;2336;47.822;7.564;2023-04-30T13:55:04;2.40;;;2.20;;
4646;SDS011;2336;47.822;7.564;2023-04-30T13:57:32;2.07;;;1.97;;
4646;SDS011;2336;47.822;7.564;2023-04-30T13:59:58;2.50;;;2.37;;
4646;SDS011;2336;47.822;7.564;2023-04-30T14:02:26;1.97;;;1.97;;
4646;SDS011;2336;47.822;7.564;2023-04-30T14:04:52;2.17;;;2.17;;
4646;SDS011;2336;47.822;7.564;2023-04-30T14:07:19;2.07;;;1.97;;
4646;SDS011;2336;47.822;7.564;2023-04-30T14:09:47;2.00;;;1.90;;
4646;SDS011;2336;47.822;7.564;2023-04-30T14:12:15;1.90;;;1.90;;
4646;SDS011;2336;47.822;7.564;2023-04-30T14:14:42;2.30;;;2.30;;
4646;SDS011;2336;47.822;7.564;2023-04-30T14:17:08;2.10;;;1.93;;
4646;SDS011;2336;47.822;7.564;2023-04-30T14:19:35;1.70;;;1.67;;
4646;SDS011;2336;47.822;7.564;2023-04-30T14:22:02;2.17;;;2.10;;
4646;SDS011;2336;47.822;7.564;2023-04-30T14:24:29;2.07;;;1.97;;
4646;SDS011;2336;47.822;7.564;2023-04-30T14:26:57;2.10;;;2.00;;
4646;SDS011;2336;47.822;7.564;2023-04-30T14:29:24;1.80;;;1.80;;
4646;SDS011;2336;47.822;7.564;2023-04-30T14:31:50;2.00;;;1.90;;
4646;SDS011;2336;47.822;7.564;2023-04-30T14:34:17;2.40;;;2.30;;
4646;SDS011;2336;47.822;7.564;2023-04-30T14:36:44;2.20;;;2.10;;
4646;SDS011;2336;47.822;7.564;2023-04-30T14:39:11;2.03;;;2.03;;
4646;SDS011;2336;47.822;7.564;2023-04-30T14:41:38;2.50;;;2.40;;
4646;SDS011;2336;47.822;7.564;2023-04-30T14:44:06;1.97;;;1.97;;
4646;SDS011;2336;47.822;7.564;2023-04-30T14:46:33;2.20;;;2.13;;
4646;SDS011;2336;47.822;7.564;2023-04-30T14:49:00;2.27;;;2.17;;
4646;SDS011;2336;47.822;7.564;2023-04-30T14:51:28;2.27;;;2.17;;
4646;SDS011;2336;47.822;7.564;2023-04-30T14:53:56;2.30;;;2.20;;
4646;SDS011;2336;47.822;7.564;2023-04-30T14:56:23;4.47;;;4.07;;
4646;SDS011;2336;47.822;7.564;2023-04-30T14:58:50;1.70;;;1.70;;
4646;SDS011;2336;47.822;7.564;2023-04-30T15:01:18;1.83;;;1.83;;
4646;SDS011;2336;47.822;7.564;2023-04-30T15:03:45;2.43;;;2.33;;
4646;SDS011;2336;47.822;7.564;2023-04-30T15:06:12;2.43;;;2.43;;
4646;SDS011;2336;47.822;7.564;2023-04-30T15:08:39;2.90;;;2.80;;
4646;SDS011;2336;47.822;7.564;2023-04-30T15:11:06;2.00;;;1.90;;
4646;SDS011;2336;47.822;7.564;2023-04-30T15:13:34;3.10;;;2.90;;
4646;SDS011;2336;47.822;7.564;2023-04-30T15:16:01;3.00;;;2.90;;
4646;SDS011;2336;47.822;7.564;2023-04-30T15:18:29;3.03;;;2.30;;
4646;SDS011;2336;47.822;7.564;2023-04-30T15:20:56;3.00;;;2.90;;
4646;SDS011;2336;47.822;7.564;2023-04-30T15:23:23;2.00;;;2.00;;